Time;durP1;ratioP1;P1;durP2;ratioP2;P2;SDS_P1;SDS_P2;PMS_P1;PMS_P2;Temp;Humidity;BMP_temperature;BMP_pressure;BME280_temperature;BME280_humidity;BME280_pressure;Samples;Min_cycle;Max_cycle;Signal;HPM_P1;HPM_P2
2022/03/14 00:01:59;;;;;;;11.95;8.15;;;;;;;3.44;29.22;99840.31;5025290;28;20049;-66
2022/03/14 00:04:31;;;;;;;12.30;8.18;;;;;;;3.42;29.01;99836.84;5025595;28;20053;-65
2022/03/14 00:06:59;;;;;;;11.48;8.18;;;;;;;3.42;29.19;99843.84;5025176;28;20054;-66
2022/03/14 00:09:30;;;;;;;9.98;8.05;;;;;;;3.42;29.11;99842.09;5027011;28;20041;-66
2022/03/14 00:12:01;;;;;;;12.20;7.93;;;;;;;3.43;29.12;99829.84;5029376;28;20042;-66
2022/03/14 00:14:30;;;;;;;14.70;7.78;;;;;;;3.39;29.11;99842.16;5029354;28;20286;-66
2022/03/14 00:17:06;;;;;;;12.65;8.18;;;;;;;3.37;29.06;99843.94;5028495;28;20046;-66
2022/03/14 00:19:40;;;;;;;9.85;8.20;;;;;;;3.39;28.76;99849.16;5029275;28;20046;-66
2022/03/14 00:22:13;;;;;;;11.75;8.15;;;;;;;3.32;29.27;99852.78;5029319;28;20045;-66
2022/03/14 00:24:46;;;;;;;10.73;8.10;;;;;;;3.33;29.02;99847.50;5029688;28;20293;-66
2022/03/14 00:27:19;;;;;;;10.80;7.93;;;;;;;3.32;29.26;99850.16;5029405;28;20084;-66
2022/03/14 00:29:52;;;;;;;8.45;7.20;;;;;;;3.37;29.09;99849.19;5029625;28;20038;-67
2022/03/14 00:32:24;;;;;;;12.25;8.82;;;;;;;3.29;29.19;99851.06;5030651;28;20042;-67
2022/03/14 00:34:57;;;;;;;11.63;7.80;;;;;;;3.27;29.21;99858.09;5030319;28;20041;-66
2022/03/14 00:37:30;;;;;;;10.48;7.90;;;;;;;3.29;29.13;99856.31;5030759;28;20046;-66
2022/03/14 00:40:07;;;;;;;10.40;7.78;;;;;;;3.28;29.22;99859.81;5030289;28;20294;-67
2022/03/14 00:42:41;;;;;;;10.18;7.57;;;;;;;3.22;29.42;99864.31;5029493;28;20045;-66
2022/03/14 00:45:13;;;;;;;10.37;7.40;;;;;;;3.19;29.41;99862.59;5029934;28;20037;-66
2022/03/14 00:47:45;;;;;;;9.85;7.68;;;;;;;3.16;29.33;99860.91;5029564;28;20056;-66
2022/03/14 00:50:18;;;;;;;11.40;8.05;;;;;;;3.13;29.36;99857.47;5029848;28;20052;-66
2022/03/14 00:52:50;;;;;;;11.57;9.32;;;;;;;3.07;29.58;99862.81;5028376;28;20042;-66
2022/03/14 00:55:23;;;;;;;10.70;7.00;;;;;;;3.04;29.81;99866.34;5028192;28;20313;-66
2022/03/14 00:57:57;;;;;;;11.02;7.60;;;;;;;3.00;29.95;99871.66;5028292;28;20050;-65
2022/03/14 01:00:29;;;;;;;11.32;7.47;;;;;;;2.99;29.86;99864.69;5028354;28;20049;-66
2022/03/14 01:03:02;;;;;;;14.82;9.65;;;;;;;2.97;29.79;99862.09;5028472;28;20042;-66
2022/03/14 01:05:35;;;;;;;11.35;8.07;;;;;;;2.97;29.96;99864.72;5028407;28;20305;-66
2022/03/14 01:08:08;;;;;;;12.02;8.20;;;;;;;2.99;29.97;99869.94;5028357;28;20042;-65
2022/03/14 01:10:40;;;;;;;13.55;8.93;;;;;;;2.97;29.73;99864.72;5028026;28;20330;-66
2022/03/14 01:13:14;;;;;;;22.50;8.90;;;;;;;2.97;29.71;99862.09;5027959;28;20042;-66
2022/03/14 01:15:47;;;;;;;12.88;7.80;;;;;;;2.39;29.74;99791.47;5027207;28;20045;-66
2022/03/14 01:18:19;;;;;;;12.15;7.88;;;;;;;2.93;29.68;99862.16;5027910;28;20045;-66
2022/03/14 01:20:51;;;;;;;8.98;7.07;;;;;;;2.93;29.84;99867.41;5026574;28;20042;-66
2022/03/14 01:23:24;;;;;;;11.68;8.43;;;;;;;2.86;29.99;99857.03;5027824;28;20042;-66
2022/03/14 01:25:56;;;;;;;11.43;7.88;;;;;;;2.88;29.62;99865.72;5027983;28;20181;-66
2022/03/14 01:28:30;;;;;;;11.13;6.80;;;;;;;2.81;30.10;99864.09;5027702;28;20049;-66
2022/03/14 01:31:02;;;;;;;11.45;7.20;;;;;;;2.80;29.94;99866.75;5027679;28;20045;-66
2022/03/14 01:33:35;;;;;;;9.55;7.70;;;;;;;2.86;29.62;99858.78;5027567;28;20041;-66
2022/03/14 01:36:07;;;;;;;11.18;7.93;;;;;;;2.86;29.95;99850.94;5027509;28;20042;-66
2022/03/14 01:38:40;;;;;;;13.13;8.48;;;;;;;2.77;30.15;99862.41;5027523;28;20049;-67
2022/03/14 01:41:16;;;;;;;11.00;7.32;;;;;;;2.76;30.13;99863.31;5027470;28;20309;-67
2022/03/14 01:43:50;;;;;;;15.93;7.35;;;;;;;2.75;30.34;99858.97;5027657;28;20042;-66
2022/03/14 01:46:23;;;;;;;14.57;8.20;;;;;;;2.68;30.44;99864.31;5027541;28;20052;-67
2022/03/14 01:48:56;;;;;;;11.23;8.07;;;;;;;2.67;30.20;99860.81;5026840;28;20041;-66
2022/03/14 01:51:29;;;;;;;12.20;7.95;;;;;;;2.67;29.98;99845.13;5027270;28;20041;-66
2022/03/14 01:54:02;;;;;;;10.18;7.75;;;;;;;2.64;30.41;99847.78;5027240;28;20061;-66
2022/03/14 01:56:35;;;;;;;10.80;7.45;;;;;;;2.61;30.45;99849.59;5027466;28;20053;-66
2022/03/14 01:59:10;;;;;;;11.10;7.88;;;;;;;2.62;30.21;99846.09;5027419;28;20050;-66
2022/03/14 02:01:43;;;;;;;9.25;7.00;;;;;;;2.61;30.18;99849.59;5027335;28;20294;-66
2022/03/14 02:04:18;;;;;;;11.45;6.95;;;;;;;2.63;30.05;99848.69;5026263;28;20041;-66
2022/03/14 02:06:53;;;;;;;10.07;6.82;;;;;;;2.64;30.37;99847.78;5026855;28;20046;-66
2022/03/14 02:09:25;;;;;;;10.07;7.65;;;;;;;2.17;30.39;99791.81;5027205;28;20053;-66
2022/03/14 02:12:07;;;;;;;12.43;8.50;;;;;;;2.52;30.64;99845.34;5026096;28;20205;-66
2022/03/14 02:14:40;;;;;;;9.15;7.15;;;;;;;2.52;30.60;99845.34;5026792;28;20042;-66
2022/03/14 02:17:10;;;;;;;9.43;7.22;;;;;;;2.41;30.70;99855.09;5027043;28;20229;-67
2022/03/14 02:19:40;;;;;;;8.48;7.00;;;;;;;2.49;30.49;99858.47;5026997;28;20046;-67
2022/03/14 02:22:13;;;;;;;8.88;6.40;;;;;;;2.49;30.34;99855.88;5026936;28;20030;-67
2022/03/14 02:24:47;;;;;;;9.98;7.22;;;;;;;2.45;30.60;99875.97;5025889;28;20065;-66
2022/03/14 02:27:20;;;;;;;10.40;7.43;;;;;;;2.38;31.07;99874.31;5026786;28;20073;-66
2022/03/14 02:29:52;;;;;;;10.80;7.15;;;;;;;2.35;30.86;99869.13;5026579;28;20042;-66
2022/03/14 02:32:24;;;;;;;14.00;7.97;;;;;;;2.36;30.75;99875.22;5026092;28;20053;-66
2022/03/14 02:34:57;;;;;;;11.05;7.35;;;;;;;2.38;30.75;99874.31;5026458;28;20038;-67
2022/03/14 02:37:31;;;;;;;10.10;6.97;;;;;;;2.35;30.75;99873.50;5026423;28;20046;-66
2022/03/14 02:40:05;;;;;;;12.13;6.88;;;;;;;2.29;31.27;99869.22;5026680;28;20045;-66
2022/03/14 02:42:37;;;;;;;9.65;7.45;;;;;;;2.27;31.40;99875.34;5025588;28;20042;-66
2022/03/14 02:45:10;;;;;;;10.27;8.00;;;;;;;2.19;31.41;99863.25;5026277;28;20041;-66
2022/03/14 02:47:42;;;;;;;14.02;8.38;;;;;;;2.13;31.60;99871.19;5026441;28;20045;-67
2022/03/14 02:50:14;;;;;;;9.82;7.60;;;;;;;1.46;31.80;99753.50;5026215;28;20052;-66
2022/03/14 02:52:48;;;;;;;13.38;8.52;;;;;;;2.12;31.53;99866.81;5026201;28;20042;-66
2022/03/14 02:55:23;;;;;;;12.93;7.97;;;;;;;2.14;31.23;99874.66;5025831;28;20057;-66
2022/03/14 02:57:58;;;;;;;10.63;8.60;;;;;;;2.08;31.66;99888.66;5025104;28;20328;-66
2022/03/14 03:00:31;;;;;;;9.80;6.63;;;;;;;2.03;31.94;99887.00;5010317;28;20089;-66
2022/03/14 03:03:06;;;;;;;10.80;7.57;;;;;;;2.03;31.81;99887.88;5026029;28;20041;-66
2022/03/14 03:05:43;;;;;;;10.05;8.07;;;;;;;1.98;31.86;99883.56;5026010;28;20045;-67
2022/03/14 03:08:17;;;;;;;13.13;8.98;;;;;;;1.98;32.06;99889.66;5026155;28;20058;-66
2022/03/14 03:10:50;;;;;;;12.63;7.50;;;;;;;2.00;31.87;99894.88;5025901;28;20038;-66
2022/03/14 03:13:23;;;;;;;9.57;7.53;;;;;;;2.00;32.28;99889.66;5025864;28;20046;-67
2022/03/14 03:15:55;;;;;;;13.00;8.32;;;;;;;1.95;32.31;99889.69;5025846;28;20038;-66
2022/03/14 03:18:28;;;;;;;9.05;6.90;;;;;;;1.96;32.34;99891.44;5026046;28;20046;-66
2022/03/14 03:21:00;;;;;;;9.55;7.47;;;;;;;1.89;32.37;99897.63;5026041;28;20038;-66
2022/03/14 03:23:35;;;;;;;8.18;7.25;;;;;;;1.89;32.51;99895.00;5025931;28;20042;-66
2022/03/14 03:26:07;;;;;;;;;;;;;;;1.84;33.04;99896.81;5026195;28;20041;-66
2022/03/14 03:28:40;;;;;;;10.02;7.25;;;;;;;1.80;32.64;99911.66;5025677;28;19924;-66
2022/03/14 03:31:16;;;;;;;14.73;7.90;;;;;;;1.81;32.46;99899.44;5025618;28;20053;-66
2022/03/14 03:33:50;;;;;;;11.20;7.63;;;;;;;1.82;32.74;99912.50;5024847;28;20069;-66
2022/03/14 03:36:22;;;;;;;9.38;7.38;;;;;;;1.87;32.58;99915.94;5025610;28;20042;-66
2022/03/14 03:38:58;;;;;;;13.00;9.68;;;;;;;1.86;32.65;99915.94;5025596;28;20045;-65
2022/03/14 03:41:30;;;;;;;11.20;8.23;;;;;;;1.87;32.55;99931.63;5025587;28;20038;-66
2022/03/14 03:44:03;;;;;;;8.57;7.00;;;;;;;1.86;33.17;99921.19;5026921;28;20282;-66
2022/03/14 03:46:35;;;;;;;9.68;7.88;;;;;;;1.83;33.11;99932.53;5029643;28;20069;-66
2022/03/14 03:49:07;;;;;;;9.45;7.47;;;;;;;1.81;33.24;99930.81;5029511;28;20045;-66
2022/03/14 03:51:40;;;;;;;10.82;7.90;;;;;;;1.78;32.98;99941.31;5029072;28;20049;-66
2022/03/14 03:54:14;;;;;;;9.63;6.25;;;;;;;1.77;32.64;99955.25;5029181;28;20217;-66
2022/03/14 03:56:46;;;;;;;10.43;7.00;;;;;;;1.79;32.52;99958.72;5029403;28;20038;-66
2022/03/14 03:59:18;;;;;;;7.97;6.88;;;;;;;1.76;33.47;99966.59;5045510;28;20038;-66
2022/03/14 04:01:52;;;;;;;9.48;6.63;;;;;;;1.76;32.88;99959.63;5029354;28;20252;-66
2022/03/14 04:04:25;;;;;;;8.90;6.57;;;;;;;1.79;33.05;99964.81;5029337;28;20045;-66
2022/03/14 04:06:59;;;;;;;9.95;7.05;;;;;;;1.82;32.43;100086.75;5029084;28;20190;-66
2022/03/14 04:09:32;;;;;;;10.38;8.07;;;;;;;1.79;32.74;99966.56;5028937;28;20202;-66
2022/03/14 04:12:05;;;;;;;14.32;8.80;;;;;;;1.78;33.22;99977.88;5029298;28;20090;-66
2022/03/14 04:14:38;;;;;;;7.97;6.18;;;;;;;1.63;32.35;99946.69;5029305;28;20316;-66
2022/03/14 04:17:08;;;;;;;12.50;7.70;;;;;;;1.84;32.45;99981.31;5028996;28;20065;-66
2022/03/14 04:19:41;;;;;;;11.13;7.25;;;;;;;1.75;33.40;99986.63;5029282;28;20294;-66
2022/03/14 04:22:15;;;;;;;13.13;7.50;;;;;;;1.73;32.98;99990.13;5028427;28;20053;-66
2022/03/14 04:24:45;;;;;;;11.52;6.65;;;;;;;1.78;32.66;99986.59;5029117;28;20050;-66
2022/03/14 04:27:14;;;;;;;10.63;7.63;;;;;;;1.73;33.15;99980.53;5029158;28;20042;-66
2022/03/14 04:29:44;;;;;;;11.02;9.05;;;;;;;1.72;33.13;99991.00;5028719;28;20305;-66
2022/03/14 04:32:14;;;;;;;10.60;7.47;;;;;;;1.76;32.98;99990.09;5028779;28;20042;-66
2022/03/14 04:34:45;;;;;;;11.25;7.35;;;;;;;1.75;33.42;99994.47;5028709;28;20042;-66
2022/03/14 04:37:15;;;;;;;10.77;7.70;;;;;;;1.67;33.41;99996.28;5028672;28;20045;-66
2022/03/14 04:39:46;;;;;;;9.75;7.57;;;;;;;1.68;33.56;99997.16;5028560;28;20046;-66
2022/03/14 04:42:16;;;;;;;11.65;7.93;;;;;;;1.62;33.11;99985.00;5028770;28;20056;-66
2022/03/14 04:44:46;;;;;;;8.70;6.50;;;;;;;1.72;33.05;99998.84;5028666;28;20042;-66
2022/03/14 04:47:17;;;;;;;10.82;7.68;;;;;;;1.72;33.57;99998.84;5028655;28;20037;-66
2022/03/14 04:49:46;;;;;;;8.93;7.30;;;;;;;1.73;33.50;100004.06;5028338;28;20183;-66
2022/03/14 04:52:16;;;;;;;11.55;8.10;;;;;;;1.69;34.16;100011.94;5028058;28;20053;-66
2022/03/14 04:54:49;;;;;;;10.02;6.78;;;;;;;1.67;34.22;100014.56;5027941;28;20109;-66
2022/03/14 04:57:17;;;;;;;12.70;8.30;;;;;;;1.61;34.34;100016.38;5028506;28;20057;-66
2022/03/14 04:59:47;;;;;;;11.70;7.85;;;;;;;1.54;34.24;100015.53;5028560;28;20057;-66
2022/03/14 05:02:22;;;;;;;8.77;6.60;;;;;;;1.56;34.03;100021.59;5028452;28;20041;-66
2022/03/14 05:04:55;;;;;;;12.98;8.95;;;;;;;1.48;34.72;100016.44;5028293;28;20312;-66
2022/03/14 05:07:28;;;;;;;9.38;7.55;;;;;;;1.48;34.47;100032.09;5028075;28;20290;-66
2022/03/14 05:10:02;;;;;;;10.35;7.90;;;;;;;1.44;35.49;100027.78;5028257;28;20037;-66
2022/03/14 05:12:35;;;;;;;11.00;7.35;;;;;;;1.52;33.85;100019.91;5027918;28;20042;-66
2022/03/14 05:15:08;;;;;;;11.50;7.43;;;;;;;1.56;33.79;100022.47;5028200;28;20041;-66
2022/03/14 05:17:40;;;;;;;11.65;8.18;;;;;;;1.53;35.21;100027.72;5028168;28;20309;-66
2022/03/14 05:20:13;;;;;;;9.38;8.32;;;;;;;1.52;35.13;100028.59;5027834;28;20294;-66
2022/03/14 05:22:48;;;;;;;11.43;7.75;;;;;;;1.53;34.50;100043.41;5027725;28;20207;-66
2022/03/14 05:25:22;;;;;;;;;;;;;;;1.47;36.07;100046.06;5028250;28;20045;-66
2022/03/14 05:27:54;;;;;;;11.23;7.65;;;;;;;1.42;35.75;100066.13;5027221;28;19940;-66
2022/03/14 05:30:27;;;;;;;11.82;8.57;;;;;;;1.39;35.17;100076.59;5027629;28;20088;-66
2022/03/14 05:32:59;;;;;;;12.52;9.23;;;;;;;1.39;34.58;100068.75;5027853;28;20088;-66
2022/03/14 05:35:31;;;;;;;10.25;7.80;;;;;;;1.41;34.70;100064.38;5027440;28;20088;-66
2022/03/14 05:38:04;;;;;;;14.02;9.45;;;;;;;1.32;35.70;100069.66;5026767;28;20088;-66
2022/03/14 05:40:37;;;;;;;11.77;8.38;;;;;;;1.24;36.13;100068.84;5027453;28;20061;-66
2022/03/14 05:43:11;;;;;;;10.48;8.15;;;;;;;0.98;36.73;100052.47;5027700;28;20046;-66
2022/03/14 05:45:44;;;;;;;12.25;9.10;;;;;;;1.14;36.67;100090.66;5027361;28;20100;-66
2022/03/14 05:48:16;;;;;;;12.68;8.98;;;;;;;1.13;36.34;100087.19;5027535;28;20042;-66
2022/03/14 05:50:48;;;;;;;14.30;7.80;;;;;;;1.14;36.33;100091.53;5026988;28;20088;-66
2022/03/14 05:53:20;;;;;;;11.82;8.90;;;;;;;1.20;36.18;100106.28;5027214;28;20045;-66
2022/03/14 05:55:54;;;;;;;12.68;9.32;;;;;;;1.12;37.05;100113.31;5027005;28;20321;-65
2022/03/14 05:58:27;;;;;;;14.38;9.20;;;;;;;1.12;37.49;100113.31;5027134;28;20054;-66
2022/03/14 06:00:59;;;;;;;9.50;7.75;;;;;;;1.14;37.66;100115.03;5027374;28;20049;-66
2022/03/14 06:03:31;;;;;;;13.13;8.82;;;;;;;1.08;37.83;100111.59;5027062;28;20088;-65
2022/03/14 06:06:03;;;;;;;11.55;8.55;;;;;;;1.11;38.16;100108.97;5026665;28;20042;-66
2022/03/14 06:08:35;;;;;;;10.82;8.07;;;;;;;1.15;38.59;100113.28;5026563;28;20053;-65
2022/03/14 06:11:09;;;;;;;10.90;9.05;;;;;;;1.12;38.31;100088.06;5026876;28;20061;-66
2022/03/14 06:13:42;;;;;;;11.82;9.65;;;;;;;1.31;38.28;100120.16;5026780;28;20046;-66
2022/03/14 06:16:14;;;;;;;13.27;8.98;;;;;;;1.44;37.63;100134.03;5026958;28;20038;-66
2022/03/14 06:18:46;;;;;;;13.02;8.40;;;;;;;1.48;38.07;100133.13;5026763;28;20249;-66
2022/03/14 06:21:19;;;;;;;11.30;8.38;;;;;;;1.31;38.72;100104.50;5027040;28;20042;-66
2022/03/14 06:23:51;;;;;;;12.13;8.77;;;;;;;1.57;38.69;100140.91;5026529;28;20049;-66
2022/03/14 06:26:25;;;;;;;13.23;8.85;;;;;;;1.64;38.65;100128.69;5026781;28;20041;-66
2022/03/14 06:28:57;;;;;;;11.57;8.40;;;;;;;1.80;38.10;100128.59;5026514;28;20042;-66
2022/03/14 06:31:31;;;;;;;12.38;9.32;;;;;;;1.92;38.09;100140.69;5025511;28;20352;-66
2022/03/14 06:34:03;;;;;;;11.48;8.60;;;;;;;2.09;37.97;100164.09;5026604;28;20045;-66
2022/03/14 06:36:36;;;;;;;14.32;8.80;;;;;;;2.18;37.12;100138.72;5026668;28;20077;-66
2022/03/14 06:39:08;;;;;;;12.30;8.50;;;;;;;2.42;37.29;100148.09;5026304;28;20046;-66
2022/03/14 06:41:43;;;;;;;21.15;9.00;;;;;;;2.49;37.33;100156.75;5026462;28;20045;-66
2022/03/14 06:44:16;;;;;;;9.77;7.40;;;;;;;2.60;37.91;100177.59;5026460;28;20037;-66
2022/03/14 06:46:48;;;;;;;9.40;7.63;;;;;;;2.66;36.78;100185.38;5026524;28;20290;-66
2022/03/14 06:49:21;;;;;;;11.43;8.20;;;;;;;2.79;37.51;100182.63;5026051;28;20042;-66
2022/03/14 06:51:53;;;;;;;11.55;8.65;;;;;;;2.85;37.83;100179.06;5026398;28;20097;-66
2022/03/14 06:54:26;;;;;;;11.27;7.55;;;;;;;2.94;37.20;100178.09;5026053;28;20087;-66
2022/03/14 06:57:00;;;;;;;10.88;8.18;;;;;;;3.04;37.66;100185.84;5026080;28;20245;-67
2022/03/14 06:59:32;;;;;;;11.13;8.35;;;;;;;3.11;36.82;100187.50;5025955;28;20046;-67
2022/03/14 07:02:05;;;;;;;15.45;11.25;;;;;;;3.27;37.08;100180.31;5026011;28;20042;-67
2022/03/14 07:04:38;;;;;;;13.85;8.90;;;;;;;3.50;36.19;100188.75;5025944;28;20041;-65
2022/03/14 07:07:11;;;;;;;11.90;8.07;;;;;;;3.60;36.67;100191.25;5026009;28;20038;-65
2022/03/14 07:09:44;;;;;;;11.98;8.68;;;;;;;3.67;37.47;100187.66;5025685;28;20249;-66
2022/03/14 07:12:18;;;;;;;12.75;9.07;;;;;;;3.81;36.84;100191.81;5025888;28;20041;-66
2022/03/14 07:14:50;;;;;;;13.43;9.75;;;;;;;3.89;37.24;100189.09;5025740;28;20253;-66
2022/03/14 07:17:21;;;;;;;9.73;8.10;;;;;;;4.02;37.31;100198.50;5025645;28;20066;-66
2022/03/14 07:19:52;;;;;;;12.43;9.00;;;;;;;4.08;37.48;100197.53;5024973;28;20056;-66
2022/03/14 07:22:21;;;;;;;10.63;7.85;;;;;;;4.17;37.53;100195.63;5025939;28;20289;-66
2022/03/14 07:24:51;;;;;;;11.68;9.40;;;;;;;4.39;36.51;100206.69;5025882;28;20136;-67
2022/03/14 07:27:23;;;;;;;10.90;8.82;;;;;;;4.54;36.46;100197.69;5025875;28;20045;-67
2022/03/14 07:29:51;;;;;;;9.90;8.10;;;;;;;4.62;37.37;100216.81;5025859;28;20080;-67
2022/03/14 07:32:22;;;;;;;13.63;9.15;;;;;;;4.49;38.20;100218.78;5025513;28;20063;-66
2022/03/14 07:34:52;;;;;;;11.57;8.70;;;;;;;4.69;37.12;100214.94;5025879;28;20305;-66
2022/03/14 07:37:22;;;;;;;11.25;8.35;;;;;;;4.99;37.50;100217.03;5025587;28;20042;-66
2022/03/14 07:39:52;;;;;;;11.23;8.63;;;;;;;4.97;37.52;100223.22;5024757;28;20046;-66
2022/03/14 07:42:25;;;;;;;14.32;8.38;;;;;;;4.51;38.30;100171.50;5024754;28;20364;-66
2022/03/14 07:44:53;;;;;;;11.40;7.53;;;;;;;4.98;38.21;100236.31;5025692;28;20052;-66
2022/03/14 07:47:24;;;;;;;9.02;7.47;;;;;;;5.03;37.83;100230.97;5025443;28;20316;-65
2022/03/14 07:49:54;;;;;;;14.55;8.95;;;;;;;5.17;37.62;100236.84;5025225;28;20046;-65
2022/03/14 07:52:24;;;;;;;10.32;7.68;;;;;;;5.36;37.62;100235.59;5025359;28;20045;-66
2022/03/14 07:54:54;;;;;;;10.32;7.22;;;;;;;5.48;37.35;100242.34;5024479;28;20117;-66
2022/03/14 07:57:26;;;;;;;11.43;7.85;;;;;;;5.70;36.89;100237.53;5025222;28;20104;-66
2022/03/14 07:59:55;;;;;;;11.32;7.65;;;;;;;5.78;37.40;100252.25;5024775;28;20045;-66
2022/03/14 08:02:25;;;;;;;10.40;7.18;;;;;;;5.85;36.12;100247.72;5024598;28;20050;-66
2022/03/14 08:04:55;;;;;;;9.20;6.55;;;;;;;5.96;35.78;100256.25;5025288;28;20042;-66
2022/03/14 08:07:26;;;;;;;10.10;8.23;;;;;;;6.19;36.31;100252.22;5025372;28;20042;-66
2022/03/14 08:09:56;;;;;;;11.43;7.88;;;;;;;6.31;36.31;100258.06;5025148;28;20049;-66
2022/03/14 08:12:28;;;;;;;10.40;7.93;;;;;;;6.05;36.63;100279.72;5025548;28;20046;-66
2022/03/14 08:14:56;;;;;;;10.32;7.25;;;;;;;6.05;36.28;100274.44;5025410;28;20349;-66
2022/03/14 08:17:26;;;;;;;10.45;7.88;;;;;;;6.23;36.35;100272.31;5025394;28;20041;-66
2022/03/14 08:19:57;;;;;;;12.82;8.57;;;;;;;6.39;35.94;100279.81;5025499;28;20110;-66
2022/03/14 08:22:27;;;;;;;8.93;7.10;;;;;;;6.59;35.32;100276.69;5025215;28;20285;-66
2022/03/14 08:24:57;;;;;;;9.38;7.60;;;;;;;6.72;35.67;100286.03;5025093;28;20105;-66
2022/03/14 08:27:29;;;;;;;10.48;7.15;;;;;;;6.73;36.00;100292.16;5025289;28;20052;-66
2022/03/14 08:29:58;;;;;;;10.68;7.95;;;;;;;6.58;35.95;100296.03;5025685;28;20149;-66
2022/03/14 08:32:28;;;;;;;10.15;7.03;;;;;;;6.63;35.69;100298.56;5028455;28;20307;-66
2022/03/14 08:34:59;;;;;;;12.95;8.57;;;;;;;6.72;35.49;100307.13;5028766;28;20050;-66
2022/03/14 08:37:28;;;;;;;11.90;7.95;;;;;;;6.90;35.06;100313.72;5028460;28;20038;-66
2022/03/14 08:39:59;;;;;;;11.75;7.43;;;;;;;6.92;35.08;100304.03;5028247;28;20062;-66
2022/03/14 08:42:30;;;;;;;9.85;8.25;;;;;;;7.17;34.79;100301.63;5027716;28;20329;-66
2022/03/14 08:44:59;;;;;;;9.40;7.38;;;;;;;6.47;34.59;100147.09;5028338;28;20049;-66
2022/03/14 08:47:29;;;;;;;10.73;7.63;;;;;;;7.62;34.24;100314.50;5028517;28;20088;-66
2022/03/14 08:50:02;;;;;;;12.77;8.57;;;;;;;7.77;34.21;100316.72;5028527;28;20157;-66
2022/03/14 08:52:30;;;;;;;8.55;7.03;;;;;;;7.88;34.10;100317.25;5028194;28;20068;-66
2022/03/14 08:55:02;;;;;;;9.30;7.90;;;;;;;7.98;33.64;100309.94;5028215;28;20384;-67
2022/03/14 08:57:32;;;;;;;10.50;7.32;;;;;;;7.32;34.35;100259.03;5028804;28;20092;-67
2022/03/14 09:00:01;;;;;;;11.73;8.73;;;;;;;8.00;34.14;100316.03;5028516;28;20042;-66
2022/03/14 09:02:31;;;;;;;9.63;6.85;;;;;;;8.17;33.63;100316.41;5027675;28;20101;-66
2022/03/14 09:05:01;;;;;;;10.27;7.55;;;;;;;8.34;33.70;100319.41;5027981;28;20245;-67
2022/03/14 09:07:32;;;;;;;9.82;7.82;;;;;;;8.42;33.53;100313.00;5028356;28;20037;-67
2022/03/14 09:10:03;;;;;;;10.25;7.75;;;;;;;8.47;33.73;100317.25;5028251;28;20042;-67
2022/03/14 09:12:34;;;;;;;9.77;8.07;;;;;;;8.76;33.30;100324.25;5027897;28;20037;-66
2022/03/14 09:15:03;;;;;;;12.00;7.60;;;;;;;8.78;33.21;100325.06;5027760;28;20045;-67
2022/03/14 09:17:34;;;;;;;7.70;6.07;;;;;;;8.84;33.18;100316.91;5027718;28;20038;-67
2022/03/14 09:20:05;;;;;;;10.40;7.15;;;;;;;8.98;33.14;100313.81;5027801;28;20064;-67
2022/03/14 09:22:35;;;;;;;7.45;6.05;;;;;;;9.08;33.12;100325.81;5026967;28;20085;-67
2022/03/14 09:25:03;;;;;;;13.55;7.82;;;;;;;9.19;33.01;100323.69;5027855;28;20112;-67
2022/03/14 09:27:35;;;;;;;8.30;6.72;;;;;;;9.25;32.90;100310.28;5027461;28;20336;-67
2022/03/14 09:30:05;;;;;;;10.20;8.38;;;;;;;9.30;32.82;100313.63;5027777;28;20045;-67
2022/03/14 09:32:34;;;;;;;12.18;7.85;;;;;;;9.32;32.71;100314.44;5027550;28;20050;-67
2022/03/14 09:35:07;;;;;;;9.80;6.65;;;;;;;9.51;32.66;100325.28;5027519;28;20042;-67
2022/03/14 09:37:36;;;;;;;9.10;7.13;;;;;;;9.36;32.50;100343.44;5027096;28;20325;-66
2022/03/14 09:40:07;;;;;;;8.07;6.35;;;;;;;9.31;32.61;100328.56;5027620;28;20056;-66
2022/03/14 09:42:39;;;;;;;7.57;5.60;;;;;;;9.44;32.56;100338.78;5026232;28;20084;-66
2022/03/14 09:45:14;;;;;;;10.60;7.78;;;;;;;9.58;32.09;100336.50;5027179;28;20038;-66
2022/03/14 09:47:48;;;;;;;9.23;6.32;;;;;;;9.74;32.05;100345.63;5027210;28;20225;-66
2022/03/14 09:50:26;;;;;;;9.15;6.63;;;;;;;9.72;32.21;100336.00;5027285;28;20341;-66
2022/03/14 09:52:59;;;;;;;10.98;6.93;;;;;;;9.92;32.08;100342.31;5027349;28;20092;-66
2022/03/14 09:55:35;;;;;;;11.90;8.05;;;;;;;10.11;32.04;100342.47;5026064;28;20317;-66
2022/03/14 09:58:11;;;;;;;12.10;7.95;;;;;;;10.36;31.70;100344.19;5026970;28;20038;-66
2022/03/14 10:00:43;;;;;;;11.25;6.93;;;;;;;10.50;31.63;100347.19;5027313;28;20175;-66
2022/03/14 10:03:18;;;;;;;8.50;7.40;;;;;;;10.55;31.49;100356.69;5026776;28;20045;-66
2022/03/14 10:05:50;;;;;;;9.70;7.93;;;;;;;10.57;31.52;100353.97;5026972;28;20183;-66
2022/03/14 10:08:23;;;;;;;11.68;7.03;;;;;;;10.74;31.40;100348.00;5025936;28;20038;-66
2022/03/14 10:10:55;;;;;;;10.07;7.45;;;;;;;10.89;31.23;100352.72;5026824;28;20041;-66
2022/03/14 10:13:29;;;;;;;7.85;6.57;;;;;;;10.91;31.33;100346.41;5026981;28;20042;-66
2022/03/14 10:16:01;;;;;;;8.20;6.25;;;;;;;11.10;31.13;100346.53;5026911;28;20290;-66
2022/03/14 10:18:37;;;;;;;8.95;7.35;;;;;;;11.29;30.98;100343.97;5025873;28;20045;-66
2022/03/14 10:21:11;;;;;;;9.05;7.28;;;;;;;11.47;30.33;100339.66;5026500;28;20249;-67
2022/03/14 10:23:44;;;;;;;13.27;6.90;;;;;;;11.36;30.94;100336.59;5026801;28;20092;-67
2022/03/14 10:26:21;;;;;;;10.25;7.00;;;;;;;11.36;30.86;100328.63;5026306;28;20460;-67
2022/03/14 10:28:57;;;;;;;11.40;7.20;;;;;;;11.39;30.78;100345.28;5026315;28;20050;-67
2022/03/14 10:31:31;;;;;;;11.07;7.65;;;;;;;11.04;30.76;100275.16;5025647;28;20250;-67
2022/03/14 10:34:05;;;;;;;9.25;7.03;;;;;;;11.59;30.69;100343.56;5026436;28;20041;-67
2022/03/14 10:36:39;;;;;;;8.20;6.25;;;;;;;11.37;30.45;100291.41;5026436;28;20290;-67
2022/03/14 10:39:16;;;;;;;8.63;6.70;;;;;;;11.92;30.11;100333.25;5026581;28;20042;-67
2022/03/14 10:42:02;;;;;;;8.60;7.28;;;;;;;12.22;30.03;100345.19;5026170;28;20046;-67
2022/03/14 10:44:37;;;;;;;17.40;6.55;;;;;;;12.27;29.82;100342.31;5026024;28;20045;-67
2022/03/14 10:47:13;;;;;;;9.30;6.97;;;;;;;12.30;29.79;100312.94;5026105;28;20045;-66
2022/03/14 10:49:46;;;;;;;10.95;6.72;;;;;;;12.52;29.86;100333.13;5025377;28;20092;-67
2022/03/14 10:52:20;;;;;;;7.57;6.07;;;;;;;12.76;29.55;100330.22;5025848;28;20092;-67
2022/03/14 10:54:53;;;;;;;9.68;7.65;;;;;;;12.70;29.69;100339.34;5025737;28;20058;-67
2022/03/14 10:57:30;;;;;;;9.73;7.00;;;;;;;12.88;29.50;100334.94;5026166;28;20122;-68
2022/03/14 11:00:06;;;;;;;8.32;6.97;;;;;;;13.02;29.21;100331.59;5025932;28;20038;-68
2022/03/14 11:02:38;;;;;;;9.05;7.72;;;;;;;13.05;29.26;100334.09;5025886;28;20092;-68
2022/03/14 11:05:11;;;;;;;10.55;8.07;;;;;;;13.20;29.38;100330.66;5025713;28;20072;-67
2022/03/14 11:07:43;;;;;;;9.02;7.13;;;;;;;13.29;29.39;100326.69;5025868;28;20038;-68
2022/03/14 11:10:11;;;;;;;9.65;7.50;;;;;;;13.42;29.10;100328.66;5025968;28;20209;-68
2022/03/14 11:12:42;;;;;;;9.18;7.65;;;;;;;13.68;28.81;100324.66;5025076;28;20049;-68
2022/03/14 11:15:14;;;;;;;10.32;7.35;;;;;;;13.83;28.50;100338.09;5025688;28;20041;-68
2022/03/14 11:17:43;;;;;;;10.48;7.55;;;;;;;14.01;28.58;100343.31;5025582;28;20272;-68
2022/03/14 11:20:12;;;;;;;9.20;7.25;;;;;;;13.87;28.68;100326.34;5025671;28;20045;-68
2022/03/14 11:22:44;;;;;;;10.10;6.95;;;;;;;13.86;28.87;100327.28;5025206;28;20046;-68
2022/03/14 11:25:13;;;;;;;9.50;6.75;;;;;;;14.06;28.78;100327.06;5025309;28;20065;-68
2022/03/14 11:27:45;;;;;;;9.93;7.80;;;;;;;14.22;28.13;100330.63;5024690;28;20041;-68
2022/03/14 11:30:15;;;;;;;10.82;8.52;;;;;;;14.11;28.05;100335.69;5025292;28;20042;-68
2022/03/14 11:32:45;;;;;;;12.82;8.23;;;;;;;14.09;28.24;100329.56;5026099;28;20057;-68
2022/03/14 11:35:14;;;;;;;10.98;7.90;;;;;;;14.19;28.46;100330.78;5025141;28;20109;-68
2022/03/14 11:37:46;;;;;;;12.27;7.90;;;;;;;14.32;28.21;100347.84;5025177;28;20064;-68
2022/03/14 11:40:16;;;;;;;9.45;7.60;;;;;;;14.31;28.57;100326.59;5025207;28;20045;-68
2022/03/14 11:42:45;;;;;;;9.88;8.23;;;;;;;14.38;28.23;100319.97;5025269;28;20041;-68
2022/03/14 11:45:17;;;;;;;9.75;8.48;;;;;;;14.49;28.19;100327.38;5025055;28;20038;-68
2022/03/14 11:47:47;;;;;;;11.07;8.65;;;;;;;14.49;28.34;100327.38;5025446;28;20068;-68
2022/03/14 11:50:16;;;;;;;11.05;8.57;;;;;;;14.48;28.14;100329.19;5025443;28;20046;-68
2022/03/14 11:52:46;;;;;;;10.85;8.45;;;;;;;14.67;28.10;100324.59;5024116;28;20363;-68